Sanborn, Minnesota
Current Conditions -  °F | °C
As of 12:53 AM on Thursday 23 Oct 2014 (Local Time) from KMWM Reporting Station
Moderate Rain Moderate Rain  
Wind Chill: 57°   Ceiling: 700
Heat Index: 57°   Visibility: 3mi
Dew Point: 55°   Wind: 10mph
Humidity: 94%   Direction: 210°SSW
Pressure: 30"   Gusts: NA
Location:  44.21°N, 95.13°W
Report Text: KMWM 230553Z AUTO 21009KT 3SM RA BKN007 OVC012 14/13 A3000 RMK AO2
Loading
Personal Weather Stations






























Interactive Weather Map
Tropical Storm Tracking
New forecast layout! Learn more

10-Day Weather Forecast

Advertisements
Track Severe Weather on mobile